Time;durP1;ratioP1;P1;durP2;ratioP2;P2;SDS_P1;SDS_P2;PMS_P1;PMS_P2;Temp;Humidity;BMP_temperature;BMP_pressure;BME280_temperature;BME280_humidity;BME280_pressure;Samples;Min_cycle;Max_cycle;Signal;HPM_P1;HPM_P2
2021/01/16 00:01:02;;;;;;;;;;;-0.50;99.90;;;;;;4912364;29;19927;-77
2021/01/16 00:03:29;;;;;;;;;;;-0.30;99.90;;;;;;4892195;29;19924;-80
2021/01/16 00:06:00;;;;;;;;;;;-0.30;99.90;;;;;;4888713;29;19943;-80
2021/01/16 00:08:28;;;;;;;;;;;-0.30;99.90;;;;;;4906903;29;19923;-80
2021/01/16 00:10:57;;;;;;;;;;;-0.40;99.90;;;;;;4903336;29;19923;-79
2021/01/16 00:13:25;;;;;;;;;;;-0.50;99.90;;;;;;4889475;29;19923;-79
2021/01/16 00:15:53;;;;;;;;;;;-0.50;99.90;;;;;;4904641;29;19923;-81
2021/01/16 00:18:27;;;;;;;;;;;-0.50;99.90;;;;;;4923057;29;20368;-79
2021/01/16 00:20:58;;;;;;;;;;;-0.50;99.90;;;;;;4892019;29;20345;-79
2021/01/16 00:23:28;;;;;;;;;;;-0.50;99.90;;;;;;4906151;29;19923;-79
2021/01/16 00:25:56;;;;;;;;;;;-0.50;99.90;;;;;;4907683;29;19923;-79
2021/01/16 00:28:29;;;;;;;;;;;-0.60;99.90;;;;;;4895621;29;19923;-79
2021/01/16 00:30:56;;;;;;;;;;;-0.60;99.90;;;;;;4927957;29;20337;-79
2021/01/16 00:33:30;;;;;;;;;;;-0.60;99.90;;;;;;4912588;29;19939;-79
2021/01/16 00:35:57;;;;;;;;;;;-0.60;99.90;;;;;;4928355;29;19923;-80
2021/01/16 00:38:25;;;;;;;;;;;-0.50;99.90;;;;;;4928285;29;19923;-79
2021/01/16 00:40:55;;;;;;;;;;;-0.60;99.90;;;;;;4906687;29;20342;-79
2021/01/16 00:43:23;;;;;;;;;;;-0.60;99.90;;;;;;4891488;29;19925;-79
2021/01/16 00:45:54;;;;;;;;;;;-0.60;99.90;;;;;;4924040;29;19934;-81
2021/01/16 00:48:23;;;;;;;;;;;-0.50;99.90;;;;;;4908718;29;19923;-80
2021/01/16 00:50:51;;;;;;;;;;;-0.50;99.90;;;;;;4895667;29;19923;-80
2021/01/16 00:53:23;;;;;;;;;;;-0.50;99.90;;;;;;4898310;29;19923;-79
2021/01/16 00:56:01;;;;;;;;;;;-0.60;99.90;;;;;;4910178;29;19927;-80
2021/01/16 00:58:30;;;;;;;;;;;-0.70;99.90;;;;;;4904447;29;19922;-79
2021/01/16 01:01:23;;;;;;;;;;;-0.80;99.90;;;;;;4880379;29;19923;-79
2021/01/16 01:03:55;;;;;;;;;;;-0.70;99.90;;;;;;4910777;29;19930;-80
2021/01/16 01:06:24;;;;;;;;;;;-0.70;99.90;;;;;;4927155;29;19937;-80
2021/01/16 01:08:51;;;;;;;;;;;-0.70;99.90;;;;;;4911598;29;20043;-79
2021/01/16 01:11:19;;;;;;;;;;;-0.70;99.90;;;;;;4910006;29;19923;-80
2021/01/16 01:13:50;;;;;;;;;;;-0.90;99.90;;;;;;4907925;29;19923;-79
2021/01/16 01:16:20;;;;;;;;;;;-0.90;99.90;;;;;;4906952;29;20330;-79
2021/01/16 01:18:48;;;;;;;;;;;-1.00;99.90;;;;;;4907484;29;19923;-80
2021/01/16 01:21:21;;;;;;;;;;;-0.90;99.90;;;;;;4908173;29;19923;-79
2021/01/16 01:23:50;;;;;;;;;;;-0.90;99.90;;;;;;4926178;29;19986;-80
2021/01/16 01:26:17;;;;;;;;;;;-0.90;99.90;;;;;;4914308;29;19923;-80
2021/01/16 01:28:47;;;;;;;;;;;-0.90;99.90;;;;;;4929558;29;19945;-79
2021/01/16 01:31:16;;;;;;;;;;;-0.80;99.90;;;;;;4912306;29;19923;-79
2021/01/16 01:33:46;;;;;;;;;;;-0.70;99.90;;;;;;4895970;29;19931;-80
2021/01/16 01:36:13;;;;;;;;;;;-0.80;99.90;;;;;;4911617;29;19923;-81
2021/01/16 01:38:42;;;;;;;;;;;-0.80;99.90;;;;;;4930272;29;19938;-79
2021/01/16 01:41:09;;;;;;;;;;;-0.80;99.90;;;;;;4908532;29;19923;-79
2021/01/16 01:43:36;;;;;;;;;;;-0.80;99.90;;;;;;4894170;29;19923;-79
2021/01/16 01:46:05;;;;;;;;;;;-0.80;99.90;;;;;;4927918;29;19923;-79
2021/01/16 01:48:33;;;;;;;;;;;-0.80;99.90;;;;;;4912741;29;19923;-80
2021/01/16 01:51:01;;;;;;;;;;;-0.70;99.90;;;;;;4896538;29;20352;-80
2021/01/16 01:53:31;;;;;;;;;;;-0.80;99.90;;;;;;4897340;29;19923;-80
2021/01/16 01:55:58;;;;;;;;;;;-0.80;99.90;;;;;;4881964;29;19923;-80
2021/01/16 01:58:25;;;;;;;;;;;-0.70;99.90;;;;;;4896090;29;19923;-80
2021/01/16 02:00:53;;;;;;;;;;;-0.80;99.90;;;;;;4927229;29;19923;-81
2021/01/16 02:03:23;;;;;;;;;;;-0.80;99.90;;;;;;4926419;29;19923;-80
2021/01/16 02:05:53;;;;;;;;;;;-0.80;99.90;;;;;;4909938;29;19933;-80
2021/01/16 02:08:20;;;;;;;;;;;-0.90;99.90;;;;;;4895035;29;19946;-79
2021/01/16 02:10:47;;;;;;;;;;;-0.80;99.90;;;;;;4896844;29;19923;-80
2021/01/16 02:13:15;;;;;;;;;;;-0.80;99.90;;;;;;4897713;29;19927;-79
2021/01/16 02:15:44;;;;;;;;;;;-0.90;99.90;;;;;;4900519;29;19949;-79
2021/01/16 02:18:16;;;;;;;;;;;-0.90;99.90;;;;;;4879051;29;19923;-79
2021/01/16 02:20:47;;;;;;;;;;;-0.80;99.90;;;;;;4877222;29;19924;-80
2021/01/16 02:23:21;;;;;;;;;;;-0.80;99.90;;;;;;4891723;29;19934;-79
2021/01/16 02:26:03;;;;;;;;;;;-0.80;99.90;;;;;;4870126;29;19924;-80
2021/01/16 02:28:35;;;;;;;;;;;-0.70;99.90;;;;;;4822048;29;20097;-80
2021/01/16 02:31:05;;;;;;;;;;;-0.80;99.90;;;;;;4869431;29;19923;-80
2021/01/16 02:33:33;;;;;;;;;;;-0.90;99.90;;;;;;4866553;29;19936;-79
2021/01/16 02:36:09;;;;;;;;;;;-0.80;99.90;;;;;;4881120;29;19924;-79
2021/01/16 02:38:43;;;;;;;;;;;-0.90;99.90;;;;;;4869872;29;19944;-79
2021/01/16 02:41:19;;;;;;;;;;;-0.90;99.90;;;;;;4871287;29;19923;-80
2021/01/16 02:43:56;;;;;;;;;;;-0.80;99.90;;;;;;4870789;29;19923;-79
2021/01/16 02:46:27;;;;;;;;;;;-0.90;99.90;;;;;;4851572;29;19923;-80
2021/01/16 02:49:05;;;;;;;;;;;-0.90;99.90;;;;;;4867285;29;19923;-80
2021/01/16 02:51:39;;;;;;;;;;;-0.90;99.90;;;;;;4882227;29;19938;-80
2021/01/16 02:54:09;;;;;;;;;;;-0.90;99.90;;;;;;4886724;29;19923;-80
2021/01/16 02:56:37;;;;;;;;;;;-0.90;99.90;;;;;;4872401;29;19935;-80
2021/01/16 02:59:07;;;;;;;;;;;-0.90;99.90;;;;;;4889831;29;19934;-80
2021/01/16 03:01:40;;;;;;;;;;;-0.90;99.90;;;;;;4887655;29;20385;-79
2021/01/16 03:04:09;;;;;;;;;;;-0.90;99.90;;;;;;4875083;29;19923;-80
2021/01/16 03:06:46;;;;;;;;;;;-0.90;99.90;;;;;;4886454;29;19934;-78
2021/01/16 03:09:17;;;;;;;;;;;-1.10;99.90;;;;;;4871914;29;19924;-79
2021/01/16 03:11:49;;;;;;;;;;;-1.00;99.90;;;;;;4886373;29;20344;-81
2021/01/16 03:14:19;;;;;;;;;;;-1.10;99.90;;;;;;4885023;29;19924;-79
2021/01/16 03:17:06;;;;;;;;;;;-1.10;99.90;;;;;;4873489;29;19924;-80
2021/01/16 03:19:34;;;;;;;;;;;-1.00;99.90;;;;;;4870831;29;19923;-80
2021/01/16 03:22:06;;;;;;;;;;;-1.00;99.90;;;;;;4873038;29;19939;-79
2021/01/16 03:24:35;;;;;;;;;;;-1.10;99.90;;;;;;4875568;29;19923;-79
2021/01/16 03:27:06;;;;;;;;;;;-1.10;99.90;;;;;;4890136;29;19928;-80
2021/01/16 03:29:35;;;;;;;;;;;-1.10;99.90;;;;;;4893487;29;19924;-80
2021/01/16 03:32:04;;;;;;;;;;;-1.20;99.90;;;;;;4892550;29;19993;-80
2021/01/16 03:34:33;;;;;;;;;;;-1.50;99.90;;;;;;4891841;29;19930;-80
2021/01/16 03:37:05;;;;;;;;;;;-1.50;99.90;;;;;;4876240;29;19934;-80
2021/01/16 03:39:33;;;;;;;;;;;-1.60;99.90;;;;;;4858417;29;19927;-80
2021/01/16 03:42:02;;;;;;;;;;;-1.50;99.90;;;;;;4888366;29;19950;-79
2021/01/16 03:44:32;;;;;;;;;;;-1.50;99.90;;;;;;4871945;29;19923;-80
2021/01/16 03:47:07;;;;;;;;;;;-1.50;99.90;;;;;;4889830;29;19924;-80
2021/01/16 03:49:38;;;;;;;;;;;-1.50;99.90;;;;;;4887685;29;20243;-79
2021/01/16 03:52:06;;;;;;;;;;;-1.70;99.90;;;;;;4871429;29;20373;-79
2021/01/16 03:54:33;;;;;;;;;;;-1.70;99.90;;;;;;4860844;29;19924;-80
2021/01/16 03:57:02;;;;;;;;;;;-1.70;99.90;;;;;;4876146;29;19938;-79
2021/01/16 03:59:30;;;;;;;;;;;-1.50;99.90;;;;;;4891024;29;19923;-80
2021/01/16 04:02:01;;;;;;;;;;;-1.40;99.90;;;;;;4876453;29;19928;-79
2021/01/16 04:04:30;;;;;;;;;;;-1.30;99.90;;;;;;4875533;29;19924;-79
2021/01/16 04:06:58;;;;;;;;;;;-1.40;99.90;;;;;;4888775;29;19951;-80
2021/01/16 04:09:29;;;;;;;;;;;-1.50;99.90;;;;;;4886575;29;19924;-80
2021/01/16 04:11:59;;;;;;;;;;;-1.40;99.90;;;;;;4890959;29;19935;-80
2021/01/16 04:14:27;;;;;;;;;;;-1.40;99.90;;;;;;4873166;29;20232;-79
2021/01/16 04:16:55;;;;;;;;;;;-1.50;99.90;;;;;;4898727;29;19923;-80
2021/01/16 04:19:22;;;;;;;;;;;-1.60;99.90;;;;;;4890119;29;19938;-80
2021/01/16 04:21:52;;;;;;;;;;;-1.50;99.90;;;;;;4889080;29;19934;-80
2021/01/16 04:24:22;;;;;;;;;;;-1.60;99.90;;;;;;4889237;29;19938;-80
2021/01/16 04:26:49;;;;;;;;;;;-1.60;99.90;;;;;;4921629;29;19923;-80
2021/01/16 04:29:16;;;;;;;;;;;-1.60;99.90;;;;;;4897274;29;19950;-80
2021/01/16 04:31:46;;;;;;;;;;;-1.60;99.90;;;;;;4914855;29;19923;-79
2021/01/16 04:34:14;;;;;;;;;;;-1.50;99.90;;;;;;4928718;29;19923;-80
2021/01/16 04:36:41;;;;;;;;;;;-1.50;99.90;;;;;;4892525;29;19923;-80
2021/01/16 04:39:12;;;;;;;;;;;-1.40;99.90;;;;;;4912705;29;19934;-81
2021/01/16 04:41:40;;;;;;;;;;;-1.30;99.90;;;;;;4912591;29;19923;-79
2021/01/16 04:44:10;;;;;;;;;;;-1.30;99.90;;;;;;4882730;29;19948;-80
2021/01/16 04:46:37;;;;;;;;;;;-1.20;99.90;;;;;;4912168;29;19934;-80
2021/01/16 04:49:05;;;;;;;;;;;-1.20;99.90;;;;;;4896791;29;19922;-80
2021/01/16 04:51:33;;;;;;;;;;;-1.20;99.90;;;;;;4895915;29;19947;-79
2021/01/16 04:54:02;;;;;;;;;;;-1.20;99.90;;;;;;4908830;29;19926;-80
2021/01/16 04:56:32;;;;;;;;;;;-1.20;99.90;;;;;;4894799;29;19922;-81
2021/01/16 04:59:01;;;;;;;;;;;-1.20;99.90;;;;;;4895751;29;19923;-79
2021/01/16 05:01:29;;;;;;;;;;;-1.20;99.90;;;;;;4896340;29;19930;-80
2021/01/16 05:03:58;;;;;;;;;;;-1.40;99.90;;;;;;4889966;29;19934;-80
2021/01/16 05:06:27;;;;;;;;;;;-1.40;99.90;;;;;;4906643;29;19978;-81
2021/01/16 05:08:58;;;;;;;;;;;-1.20;99.90;;;;;;4889901;29;19923;-79
2021/01/16 05:11:35;;;;;;;;;;;-1.30;99.90;;;;;;4908162;29;20396;-80
2021/01/16 05:14:10;;;;;;;;;;;-1.40;99.90;;;;;;4909851;29;19926;-79
2021/01/16 05:16:44;;;;;;;;;;;-1.40;99.90;;;;;;4893487;29;19923;-80
2021/01/16 05:19:15;;;;;;;;;;;-1.40;99.90;;;;;;4926236;29;19923;-80
2021/01/16 05:21:42;;;;;;;;;;;-1.40;99.90;;;;;;4894784;29;19923;-80
2021/01/16 05:24:14;;;;;;;;;;;-1.40;99.90;;;;;;4911469;29;19930;-79
2021/01/16 05:26:52;;;;;;;;;;;-1.50;99.90;;;;;;4929157;29;19933;-79
2021/01/16 05:29:25;;;;;;;;;;;-1.60;99.90;;;;;;4913864;29;20359;-78
2021/01/16 05:31:52;;;;;;;;;;;-1.60;99.90;;;;;;4911949;29;19960;-79
2021/01/16 05:34:20;;;;;;;;;;;-1.50;99.90;;;;;;4911465;29;19943;-80
2021/01/16 05:36:50;;;;;;;;;;;-1.50;99.90;;;;;;4894315;29;19923;-78
2021/01/16 05:39:18;;;;;;;;;;;-1.30;99.90;;;;;;4910237;29;19923;-80
2021/01/16 05:41:50;;;;;;;;;;;-1.40;99.90;;;;;;4911570;29;19991;-79
2021/01/16 05:44:22;;;;;;;;;;;-1.40;99.90;;;;;;4928598;29;19934;-78
2021/01/16 05:46:58;;;;;;;;;;;-1.30;99.90;;;;;;4913185;29;19922;-79
2021/01/16 05:49:27;;;;;;;;;;;-1.20;99.90;;;;;;4898722;29;19934;-79
2021/01/16 05:52:06;;;;;;;;;;;-1.30;99.90;;;;;;4899518;29;19957;-80
2021/01/16 05:54:36;;;;;;;;;;;-1.30;99.90;;;;;;4898121;29;19923;-79
2021/01/16 05:57:09;;;;;;;;;;;-1.30;99.90;;;;;;4895789;29;19934;-80
2021/01/16 05:59:38;;;;;;;;;;;-1.40;99.90;;;;;;4927890;29;19922;-79
2021/01/16 06:02:08;;;;;;;;;;;-1.40;99.90;;;;;;4911832;29;20269;-79
2021/01/16 06:04:35;;;;;;;;;;;-1.40;99.90;;;;;;4911601;29;19931;-79
2021/01/16 06:07:06;;;;;;;;;;;-1.40;99.90;;;;;;4879433;29;19930;-80
2021/01/16 06:09:35;;;;;;;;;;;-1.40;99.90;;;;;;4878536;29;19924;-79
2021/01/16 06:12:05;;;;;;;;;;;-1.60;99.90;;;;;;4878603;29;19927;-81
2021/01/16 06:14:41;;;;;;;;;;;-1.60;99.90;;;;;;4910723;29;19945;-79
2021/01/16 06:17:10;;;;;;;;;;;-1.40;99.90;;;;;;4911844;29;19931;-78
2021/01/16 06:19:41;;;;;;;;;;;-1.40;99.90;;;;;;4898779;29;19934;-80
2021/01/16 06:22:10;;;;;;;;;;;-1.40;99.90;;;;;;4906971;29;19922;-81
2021/01/16 06:24:41;;;;;;;;;;;-1.60;99.90;;;;;;4899938;29;19922;-80
2021/01/16 06:27:19;;;;;;;;;;;-1.70;99.90;;;;;;4912688;29;19923;-79
2021/01/16 06:29:57;;;;;;;;;;;-1.60;99.90;;;;;;4903814;29;19934;-79
2021/01/16 06:32:30;;;;;;;;;;;-1.60;99.90;;;;;;4896830;29;19923;-79
2021/01/16 06:35:06;;;;;;;;;;;-1.50;99.90;;;;;;4926341;29;19923;-79
2021/01/16 06:37:42;;;;;;;;;;;-1.50;99.90;;;;;;4918117;29;19930;-79
2021/01/16 06:40:09;;;;;;;;;;;-1.50;99.90;;;;;;4900549;29;19923;-80
2021/01/16 06:42:37;;;;;;;;;;;-1.60;99.90;;;;;;4928586;29;19923;-79
2021/01/16 06:45:09;;;;;;;;;;;-1.60;99.90;;;;;;4911560;29;19923;-79
2021/01/16 06:47:37;;;;;;;;;;;-1.70;99.90;;;;;;4917103;29;19922;-79
2021/01/16 06:50:08;;;;;;;;;;;-1.70;99.90;;;;;;4906570;29;19923;-81
2021/01/16 06:52:36;;;;;;;;;;;-1.70;99.90;;;;;;4897188;29;19934;-79
2021/01/16 06:55:05;;;;;;;;;;;-1.80;99.90;;;;;;4911788;29;20350;-78
2021/01/16 06:57:35;;;;;;;;;;;-1.70;99.90;;;;;;4913332;29;19934;-78
2021/01/16 07:00:05;;;;;;;;;;;-1.70;99.90;;;;;;4928790;29;19934;-79
2021/01/16 07:02:36;;;;;;;;;;;-1.60;99.90;;;;;;4894322;29;19924;-80
2021/01/16 07:05:04;;;;;;;;;;;-1.50;99.90;;;;;;4888003;29;19927;-79
2021/01/16 07:07:34;;;;;;;;;;;-1.50;99.90;;;;;;4913868;29;19923;-80
2021/01/16 07:10:06;;;;;;;;;;;-1.30;99.90;;;;;;4913506;29;19923;-79
2021/01/16 07:12:33;;;;;;;;;;;-1.40;99.90;;;;;;4896927;29;20276;-81
2021/01/16 07:15:03;;;;;;;;;;;-1.30;99.90;;;;;;4895954;29;19923;-80
2021/01/16 07:17:34;;;;;;;;;;;-1.30;99.90;;;;;;4894050;29;19942;-79
2021/01/16 07:20:04;;;;;;;;;;;-1.30;99.90;;;;;;4907150;29;19934;-79
2021/01/16 07:22:32;;;;;;;;;;;-1.40;99.90;;;;;;4907729;29;19922;-79
2021/01/16 07:24:59;;;;;;;;;;;-1.40;99.90;;;;;;4893161;29;19923;-79
2021/01/16 07:27:30;;;;;;;;;;;-1.30;99.90;;;;;;4908923;29;19923;-79
2021/01/16 07:29:57;;;;;;;;;;;-1.20;99.90;;;;;;4896895;29;19934;-79
2021/01/16 07:32:36;;;;;;;;;;;-1.30;99.90;;;;;;4930105;29;19923;-78
2021/01/16 07:35:08;;;;;;;;;;;-1.30;99.90;;;;;;4899769;29;19934;-78
2021/01/16 07:37:36;;;;;;;;;;;-1.20;99.90;;;;;;4930481;29;20341;-79
2021/01/16 07:40:04;;;;;;;;;;;-1.30;99.90;;;;;;4911544;29;19927;-79
2021/01/16 07:42:31;;;;;;;;;;;-1.20;99.90;;;;;;4894676;29;19934;-80
2021/01/16 07:45:07;;;;;;;;;;;-1.30;99.90;;;;;;4913739;29;19923;-79
2021/01/16 07:47:39;;;;;;;;;;;-1.40;99.90;;;;;;4930026;29;20341;-79
2021/01/16 07:50:18;;;;;;;;;;;-1.40;99.90;;;;;;4913512;29;19923;-79
2021/01/16 07:52:57;;;;;;;;;;;-1.10;99.90;;;;;;4879244;29;19934;-79
2021/01/16 07:55:43;;;;;;;;;;;-1.20;99.90;;;;;;4927687;29;20289;-80
2021/01/16 07:58:49;;;;;;;;;;;-1.20;99.90;;;;;;4889238;29;19927;-79
2021/01/16 08:01:25;;;;;;;;;;;-1.30;99.90;;;;;;4913300;29;19923;-78
2021/01/16 08:04:22;;;;;;;;;;;-1.30;99.90;;;;;;4910822;29;20272;-78
2021/01/16 08:07:04;;;;;;;;;;;-1.30;99.90;;;;;;4859413;29;19924;-81
2021/01/16 08:09:46;;;;;;;;;;;-1.30;99.90;;;;;;4894067;29;19923;-79
2021/01/16 08:12:15;;;;;;;;;;;-1.30;99.90;;;;;;4896622;29;20273;-80
2021/01/16 08:14:43;;;;;;;;;;;-1.10;99.90;;;;;;4911225;29;19934;-80
2021/01/16 08:17:12;;;;;;;;;;;-1.00;99.90;;;;;;4911230;29;19934;-78
2021/01/16 08:19:43;;;;;;;;;;;-1.00;99.90;;;;;;4895402;29;19923;-80
2021/01/16 08:22:16;;;;;;;;;;;-0.90;99.90;;;;;;4911260;29;19930;-82
2021/01/16 08:24:55;;;;;;;;;;;-0.90;99.90;;;;;;4898071;29;19923;-81
2021/01/16 08:27:28;;;;;;;;;;;-0.90;99.90;;;;;;4907513;29;19923;-80
2021/01/16 08:29:57;;;;;;;;;;;-1.00;99.90;;;;;;4893352;29;20277;-80
2021/01/16 08:32:24;;;;;;;;;;;-0.90;99.90;;;;;;4923336;29;19943;-79
2021/01/16 08:34:52;;;;;;;;;;;-1.20;99.90;;;;;;4924451;29;19923;-80
2021/01/16 08:37:32;;;;;;;;;;;-1.20;99.90;;;;;;4904172;29;19927;-79
2021/01/16 08:40:00;;;;;;;;;;;-1.30;99.90;;;;;;4889828;29;19927;-80
2021/01/16 08:42:31;;;;;;;;;;;-1.30;99.90;;;;;;4931385;29;19931;-80
2021/01/16 08:45:04;;;;;;;;;;;-1.40;99.90;;;;;;4897865;29;19927;-81
2021/01/16 08:47:33;;;;;;;;;;;-1.30;99.90;;;;;;4912189;29;19923;-81
2021/01/16 08:50:12;;;;;;;;;;;-1.30;99.90;;;;;;4928435;29;19923;-79
2021/01/16 08:52:44;;;;;;;;;;;-1.30;99.90;;;;;;4902078;29;19927;-81
2021/01/16 08:55:12;;;;;;;;;;;-1.10;99.90;;;;;;4910815;29;19931;-80
2021/01/16 08:57:40;;;;;;;;;;;-1.20;99.90;;;;;;4923637;29;19923;-79
2021/01/16 09:00:20;;;;;;;;;;;-1.30;99.90;;;;;;4911404;29;19923;-80
2021/01/16 09:03:07;;;;;;;;;;;-1.30;99.90;;;;;;4909938;29;19930;-80
2021/01/16 09:05:37;;;;;;;;;;;-1.40;99.90;;;;;;4910493;29;19931;-81
2021/01/16 09:08:18;;;;;;;;;;;-1.40;99.90;;;;;;4908631;29;19923;-81
2021/01/16 09:10:52;;;;;;;;;;;-1.30;99.90;;;;;;4893578;29;19923;-79
2021/01/16 09:13:26;;;;;;;;;;;-1.20;99.90;;;;;;4893372;29;19934;-80
2021/01/16 09:15:54;;;;;;;;;;;-1.20;99.90;;;;;;4894311;29;19927;-80
2021/01/16 09:18:21;;;;;;;;;;;-1.10;99.90;;;;;;4891257;29;20333;-80
2021/01/16 09:20:56;;;;;;;;;;;-0.90;99.90;;;;;;4921784;29;19923;-79
2021/01/16 09:23:28;;;;;;;;;;;-0.90;99.90;;;;;;4912202;29;19934;-80
2021/01/16 09:25:57;;;;;;;;;;;-0.80;99.90;;;;;;4929537;29;20345;-81
2021/01/16 09:28:43;;;;;;;;;;;-0.70;99.90;;;;;;4911166;29;19943;-80
2021/01/16 09:31:22;;;;;;;;;;;-0.60;99.90;;;;;;4897755;29;19923;-80
2021/01/16 09:33:50;;;;;;;;;;;-0.50;99.90;;;;;;4900195;29;19930;-81
2021/01/16 09:36:37;;;;;;;;;;;-0.60;99.90;;;;;;4919135;29;19923;-80
2021/01/16 09:39:14;;;;;;;;;;;-0.70;99.90;;;;;;4903953;29;19923;-80
2021/01/16 09:41:42;;;;;;;;;;;-0.80;99.90;;;;;;4918561;29;19934;-79
2021/01/16 09:44:09;;;;;;;;;;;-0.70;99.90;;;;;;4902303;29;19922;-80
2021/01/16 09:46:41;;;;;;;;;;;-0.70;99.90;;;;;;4932045;29;19930;-80
2021/01/16 09:49:09;;;;;;;;;;;-0.70;99.90;;;;;;4900587;29;19943;-79
2021/01/16 09:51:37;;;;;;;;;;;-0.70;99.90;;;;;;4916348;29;19923;-80
2021/01/16 09:54:15;;;;;;;;;;;-0.70;99.90;;;;;;4914707;29;19923;-81
2021/01/16 09:56:51;;;;;;;;;;;-0.60;99.90;;;;;;4911523;29;19930;-79
2021/01/16 09:59:24;;;;;;;;;;;-0.70;99.90;;;;;;4911224;29;20269;-80
2021/01/16 10:02:08;;;;;;;;;;;-0.70;99.90;;;;;;4910892;29;19923;-79
2021/01/16 10:04:44;;;;;;;;;;;-0.70;99.90;;;;;;4910074;29;19934;-82
2021/01/16 10:07:16;;;;;;;;;;;-0.80;99.90;;;;;;4910611;29;20364;-82
2021/01/16 10:09:48;;;;;;;;;;;-0.80;99.90;;;;;;4895974;29;19927;-79
2021/01/16 10:12:44;;;;;;;;;;;-0.90;99.90;;;;;;4915649;29;19922;-79
2021/01/16 10:15:16;;;;;;;;;;;-0.90;99.90;;;;;;4863798;29;19927;-81
2021/01/16 10:17:44;;;;;;;;;;;-1.00;99.90;;;;;;4913211;29;19923;-79
2021/01/16 10:20:16;;;;;;;;;;;-0.90;99.90;;;;;;4895926;29;19926;-80
2021/01/16 10:22:52;;;;;;;;;;;-0.80;99.90;;;;;;4910532;29;19927;-80
2021/01/16 10:25:37;;;;;;;;;;;-0.80;99.90;;;;;;4900261;29;19930;-82
2021/01/16 10:28:05;;;;;;;;;;;-0.90;99.90;;;;;;4916681;29;19923;-84
2021/01/16 10:30:33;;;;;;;;;;;-0.90;99.90;;;;;;4945242;29;19922;-83
2021/01/16 10:33:01;;;;;;;;;;;-0.80;99.90;;;;;;4931105;29;19923;-84
2021/01/16 10:35:31;;;;;;;;;;;-0.60;99.90;;;;;;4928236;29;19922;-84
2021/01/16 10:46:44;;;;;;;;;;;-0.30;99.90;;;;;;4959195;23;19913;-84
2021/01/16 10:55:10;;;;;;;;;;;-0.50;99.90;;;;;;5676371;23;19914;-84
2021/01/16 10:57:44;;;;;;;;;;;-0.50;99.90;;;;;;4930905;29;19940;-84
2021/01/16 11:00:13;;;;;;;;;;;-0.40;99.90;;;;;;4962197;29;19913;-85
2021/01/16 11:02:42;;;;;;;;;;;-0.40;99.90;;;;;;4943132;29;19907;-86
2021/01/16 11:05:21;;;;;;;;;;;-0.50;99.90;;;;;;4927803;29;19923;-84
2021/01/16 11:07:48;;;;;;;;;;;-0.50;99.90;;;;;;4911086;29;19930;-85
2021/01/16 11:10:16;;;;;;;;;;;-0.40;99.90;;;;;;4927257;29;19915;-85
2021/01/16 11:12:46;;;;;;;;;;;-0.50;99.90;;;;;;4926914;29;19933;-84
2021/01/16 11:15:27;;;;;;;;;;;-0.60;99.90;;;;;;4897078;29;19926;-84
2021/01/16 11:17:56;;;;;;;;;;;-0.50;99.90;;;;;;4927252;29;19923;-84
2021/01/16 11:20:27;;;;;;;;;;;-0.60;99.90;;;;;;4943327;28;19915;-83
2021/01/16 11:23:24;;;;;;;;;;;-0.80;99.90;;;;;;4943374;29;19907;-84
2021/01/16 11:34:20;;;;;;;;;;;-0.60;99.90;;;;;;4903838;29;19956;-85
2021/01/16 11:37:00;;;;;;;;;;;-0.70;99.90;;;;;;4904444;29;19924;-85
2021/01/16 11:39:42;;;;;;;;;;;-0.70;99.90;;;;;;4874588;29;19928;-84
2021/01/16 11:42:16;;;;;;;;;;;-0.50;99.90;;;;;;5677780;23;21006;31
2021/01/16 11:44:57;;;;;;;;;;;-0.40;99.90;;;;;;4853984;29;19908;-84
2021/01/16 11:47:27;;;;;;;;;;;-0.30;99.90;;;;;;4868714;29;19923;-85
2021/01/16 11:49:57;;;;;;;;;;;-0.30;99.90;;;;;;4854036;29;19908;-84
2021/01/16 11:52:26;;;;;;;;;;;-0.30;99.90;;;;;;4854424;29;19920;-83
2021/01/16 11:54:54;;;;;;;;;;;-0.30;99.90;;;;;;4870607;29;19935;-85
2021/01/16 11:57:25;;;;;;;;;;;-0.30;99.90;;;;;;4870244;29;19924;-85
2021/01/16 11:59:56;;;;;;;;;;;-0.10;99.90;;;;;;4869969;29;19908;-85
2021/01/16 12:02:25;;;;;;;;;;;-0.20;99.90;;;;;;4885448;29;19928;-84
2021/01/16 12:04:53;;;;;;;;;;;-0.10;99.90;;;;;;4886116;29;19908;-85
2021/01/16 12:07:34;;;;;;;;;;;-0.20;99.90;;;;;;4869843;29;19912;-85
2021/01/16 12:10:03;;;;;;;;;;;-0.30;99.90;;;;;;4855345;29;19914;-86
2021/01/16 12:12:32;;;;;;;;;;;-0.30;99.90;;;;;;4855156;29;19908;-86
2021/01/16 12:15:00;;;;;;;;;;;-0.30;99.90;;;;;;4885537;29;19987;-86
2021/01/16 12:17:29;;;;;;;;;;;-0.20;99.90;;;;;;4868501;29;19924;-85
2021/01/16 12:19:59;;;;;;;;;;;0.00;99.90;;;;;;4868660;29;19915;-87
2021/01/16 12:22:30;;;;;;;;;;;0.10;99.90;;;;;;4847474;29;19934;-84
2021/01/16 12:24:59;;;;;;;;;;;0.10;99.90;;;;;;4880649;29;19908;-85
2021/01/16 12:27:27;;;;;;;;;;;0.00;99.90;;;;;;4869797;29;19908;-84
2021/01/16 12:29:57;;;;;;;;;;;-0.10;99.90;;;;;;4886604;29;19908;-86
2021/01/16 12:32:24;;;;;;;;;;;-0.10;99.90;;;;;;4884624;29;19934;-86
2021/01/16 12:34:53;;;;;;;;;;;-0.10;99.90;;;;;;4861688;29;19912;-86
2021/01/16 12:37:30;;;;;;;;;;;-0.10;99.90;;;;;;4868989;29;19915;-84
2021/01/16 12:39:59;;;;;;;;;;;0.20;99.90;;;;;;4855196;29;19908;-83
2021/01/16 12:45:32;;;;;;;;;;;0.20;99.90;;;;;;5042649;23;19927;-85
2021/01/16 12:48:03;;;;;;;;;;;0.30;99.90;;;;;;4941920;29;19923;-85
2021/01/16 12:53:21;;;;;;;;;;;0.10;99.90;;;;;;5668824;23;19914;-85
2021/01/16 12:55:52;;;;;;;;;;;0.00;99.90;;;;;;4925443;29;19907;-84
2021/01/16 12:58:20;;;;;;;;;;;-0.20;99.90;;;;;;4924800;29;19913;-85
2021/01/16 13:00:49;;;;;;;;;;;-0.20;99.90;;;;;;4907275;29;19923;-84
2021/01/16 13:03:23;;;;;;;;;;;-0.30;99.90;;;;;;4921902;29;19913;-83
2021/01/16 13:05:50;;;;;;;;;;;-0.30;99.90;;;;;;4923123;29;19919;-84
2021/01/16 13:08:21;;;;;;;;;;;-0.20;99.90;;;;;;4937219;29;19923;-84
2021/01/16 13:10:54;;;;;;;;;;;-0.20;99.90;;;;;;4906421;29;19922;-85
2021/01/16 13:13:24;;;;;;;;;;;0.00;99.90;;;;;;4938824;29;19927;-85
2021/01/16 13:15:59;;;;;;;;;;;0.00;99.90;;;;;;4924487;29;19907;-84
2021/01/16 13:18:32;;;;;;;;;;;0.10;99.90;;;;;;4918890;29;19918;-83
2021/01/16 13:21:01;;;;;;;;;;;0.10;99.90;;;;;;4920681;29;19927;-82
2021/01/16 13:23:35;;;;;;;;;;;0.10;99.90;;;;;;4920203;29;19923;-82
2021/01/16 13:26:04;;;;;;;;;;;0.00;99.90;;;;;;4919888;29;19923;-85
2021/01/16 13:28:31;;;;;;;;;;;-0.10;99.90;;;;;;4921234;29;20330;-81
2021/01/16 13:31:01;;;;;;;;;;;-0.20;99.90;;;;;;4925386;29;19927;-85
2021/01/16 13:33:28;;;;;;;;;;;-0.20;99.90;;;;;;4924522;29;19914;-85
2021/01/16 13:36:00;;;;;;;;;;;0.10;99.90;;;;;;4925306;29;19917;-86
2021/01/16 13:38:32;;;;;;;;;;;0.30;99.90;;;;;;4908259;29;19922;-84
2021/01/16 13:41:01;;;;;;;;;;;0.20;99.90;;;;;;4920731;29;19907;-83
2021/01/16 13:43:30;;;;;;;;;;;0.20;99.90;;;;;;4905614;29;19923;-84
2021/01/16 13:45:58;;;;;;;;;;;0.20;99.90;;;;;;4955069;23;19929;-84
2021/01/16 13:48:36;;;;;;;;;;;0.20;99.90;;;;;;4921587;29;19923;-84
2021/01/16 13:51:18;;;;;;;;;;;0.20;99.90;;;;;;4921399;29;19934;-83
2021/01/16 13:53:51;;;;;;;;;;;0.20;99.90;;;;;;4886490;29;19923;-82
2021/01/16 13:56:20;;;;;;;;;;;0.30;99.90;;;;;;4906511;29;19923;-86
2021/01/16 13:58:48;;;;;;;;;;;0.30;99.90;;;;;;4924063;29;19923;-91
2021/01/16 14:01:34;;;;;;;;;;;0.30;99.90;;;;;;4940175;29;19907;-88
2021/01/16 14:04:04;;;;;;;;;;;0.40;99.90;;;;;;4909505;29;19927;-87
2021/01/16 14:06:47;;;;;;;;;;;0.60;99.90;;;;;;4909540;29;19907;-86
2021/01/16 14:09:23;;;;;;;;;;;0.70;99.90;;;;;;4926561;29;19913;-85
2021/01/16 14:11:51;;;;;;;;;;;0.60;99.90;;;;;;4937135;29;19907;-84
2021/01/16 14:14:28;;;;;;;;;;;0.60;99.90;;;;;;4928933;29;19913;-86
2021/01/16 14:17:12;;;;;;;;;;;0.60;99.90;;;;;;4913347;29;19913;-86
2021/01/16 14:19:41;;;;;;;;;;;0.40;99.90;;;;;;4909392;29;19949;-86
2021/01/16 14:25:00;;;;;;;;;;;0.40;99.90;;;;;;5303363;23;19914;-85
2021/01/16 14:27:38;;;;;;;;;;;0.40;99.90;;;;;;4929309;29;19907;-83
2021/01/16 14:30:08;;;;;;;;;;;0.20;99.90;;;;;;4911991;29;19924;-84
2021/01/16 14:32:38;;;;;;;;;;;0.20;99.90;;;;;;4927692;29;19919;-85
2021/01/16 14:35:18;;;;;;;;;;;0.20;99.90;;;;;;4912861;29;19913;-86
2021/01/16 15:22:52;;;;;;;;;;;-0.80;99.90;;;;;;5990179;23;20032;-84
2021/01/16 15:25:20;;;;;;;;;;;-0.90;99.90;;;;;;4867621;29;19923;-83
2021/01/16 15:27:49;;;;;;;;;;;-0.90;99.90;;;;;;4866262;29;19935;-82
2021/01/16 15:30:17;;;;;;;;;;;-0.80;99.90;;;;;;4864311;29;19927;-83
2021/01/16 15:32:56;;;;;;;;;;;-0.90;99.90;;;;;;4849806;29;19924;-83
2021/01/16 15:35:32;;;;;;;;;;;-0.90;99.90;;;;;;4850078;29;19924;-82
2021/01/16 15:38:03;;;;;;;;;;;-1.00;99.90;;;;;;4850334;29;19924;-82
2021/01/16 15:40:30;;;;;;;;;;;-1.10;99.90;;;;;;4850307;29;19924;-81
2021/01/16 15:43:08;;;;;;;;;;;-1.20;99.90;;;;;;4850322;29;19924;-83
2021/01/16 15:45:36;;;;;;;;;;;-1.20;99.90;;;;;;4878452;29;19932;-81
2021/01/16 15:48:10;;;;;;;;;;;-1.20;99.90;;;;;;4860361;29;19924;-82
2021/01/16 15:50:45;;;;;;;;;;;-1.20;99.90;;;;;;4877163;29;19935;-82
2021/01/16 15:53:29;;;;;;;;;;;-1.20;99.90;;;;;;4877794;29;19943;-84
2021/01/16 15:56:01;;;;;;;;;;;-1.10;99.90;;;;;;4846589;29;19928;-84
2021/01/16 15:58:33;;;;;;;;;;;-1.00;99.90;;;;;;4863091;29;19998;-83
2021/01/16 16:01:22;;;;;;;;;;;-1.00;99.90;;;;;;4863253;29;19935;-84